createdAt,value
2018-09-28T00:00:45.954Z,13.00
2018-09-28T00:03:12.903Z,13.00
2018-09-28T00:05:39.866Z,13.10
2018-09-28T00:08:06.858Z,13.00
2018-09-28T00:10:33.815Z,13.00
2018-09-28T00:13:00.765Z,12.90
2018-09-28T00:15:27.738Z,13.00
2018-09-28T00:17:54.702Z,12.80
2018-09-28T00:20:21.665Z,12.90
2018-09-28T00:22:48.650Z,12.90
2018-09-28T00:25:15.599Z,12.80
2018-09-28T00:27:42.842Z,12.80
2018-09-28T00:30:09.823Z,12.80
2018-09-28T00:32:36.814Z,12.70
2018-09-28T00:35:04.270Z,12.70
2018-09-28T00:37:31.258Z,12.70
2018-09-28T00:39:58.220Z,12.60
2018-09-28T00:42:25.212Z,12.60
2018-09-28T00:44:52.143Z,10.50
2018-09-28T00:47:19.113Z,12.60
2018-09-28T00:49:46.078Z,12.70
2018-09-28T00:52:13.042Z,12.60
2018-09-28T00:54:39.992Z,12.70
2018-09-28T00:57:06.942Z,12.60
2018-09-28T00:59:33.939Z,12.50
2018-09-28T01:02:00.897Z,12.50
2018-09-28T01:04:27.854Z,12.30
2018-09-28T01:06:54.809Z,12.30
2018-09-28T01:09:21.766Z,12.40
2018-09-28T01:11:48.735Z,12.30
2018-09-28T01:14:15.696Z,12.30
2018-09-28T01:16:42.642Z,12.30
2018-09-28T01:19:09.608Z,9.90
2018-09-28T01:21:36.581Z,11.30
2018-09-28T01:24:03.553Z,12.40
2018-09-28T01:26:30.506Z,12.30
2018-09-28T01:28:57.751Z,12.30
2018-09-28T01:31:24.721Z,12.20
2018-09-28T01:33:51.713Z,12.20
2018-09-28T01:36:18.697Z,12.20
2018-09-28T01:38:45.650Z,12.30
2018-09-28T01:41:12.613Z,11.90
2018-09-28T01:43:39.557Z,12.20
2018-09-28T01:46:06.646Z,11.00
2018-09-28T01:48:33.589Z,12.00
2018-09-28T01:51:00.592Z,12.00
2018-09-28T01:53:27.539Z,12.00
2018-09-28T01:55:54.482Z,12.00
2018-09-28T01:58:21.472Z,12.10
2018-09-28T02:00:48.527Z,12.00
2018-09-28T02:03:15.477Z,12.10
2018-09-28T02:05:42.486Z,12.10
2018-09-28T02:08:09.434Z,12.00
2018-09-28T02:10:36.405Z,12.00
2018-09-28T02:13:03.380Z,12.10
2018-09-28T02:15:30.330Z,12.10
2018-09-28T02:17:57.287Z,12.10
2018-09-28T02:20:24.265Z,12.00
2018-09-28T02:22:51.214Z,11.90
2018-09-28T02:25:18.193Z,11.80
2018-09-28T02:27:45.166Z,11.90
2018-09-28T02:30:12.494Z,11.90
2018-09-28T02:32:39.473Z,11.80
2018-09-28T02:35:06.498Z,11.70
2018-09-28T02:37:33.489Z,11.70
2018-09-28T02:40:00.457Z,11.90
2018-09-28T02:42:27.419Z,11.90
2018-09-28T02:44:54.371Z,11.80
2018-09-28T02:47:21.315Z,11.30
2018-09-28T02:49:48.282Z,11.60
2018-09-28T02:52:15.246Z,11.50
2018-09-28T02:54:42.202Z,11.60
2018-09-28T02:57:09.189Z,11.60
2018-09-28T02:59:36.166Z,11.70
2018-09-28T03:02:03.115Z,11.70
2018-09-28T03:04:30.134Z,11.70
2018-09-28T03:06:57.072Z,11.80
2018-09-28T03:09:24.038Z,11.90
2018-09-28T03:11:51.021Z,11.90
2018-09-28T03:14:17.967Z,11.90
2018-09-28T03:16:44.935Z,8.60
2018-09-28T03:19:11.921Z,11.90
2018-09-28T03:21:38.881Z,11.70
2018-09-28T03:24:05.838Z,11.60
2018-09-28T03:26:33.073Z,11.60
2018-09-28T03:31:27.306Z,11.60
2018-09-28T03:33:54.290Z,11.60
2018-09-28T03:36:21.258Z,8.40
2018-09-28T03:38:48.211Z,11.50
2018-09-28T03:41:15.170Z,11.40
2018-09-28T03:43:42.114Z,11.50
2018-09-28T03:46:09.079Z,11.60
2018-09-28T03:48:36.092Z,11.60
2018-09-28T03:51:03.058Z,11.40
2018-09-28T03:53:30.006Z,11.40
2018-09-28T03:55:56.985Z,11.50
2018-09-28T03:58:23.930Z,11.40
2018-09-28T04:00:50.950Z,11.40
2018-09-28T04:03:17.907Z,11.20
2018-09-28T04:05:44.878Z,11.40
2018-09-28T04:08:11.821Z,11.30
2018-09-28T04:10:38.806Z,9.40
2018-09-28T04:13:05.733Z,11.40
2018-09-28T04:15:32.742Z,11.30
2018-09-28T04:17:59.711Z,11.30
2018-09-28T04:20:26.666Z,11.20
2018-09-28T04:22:53.634Z,11.20
2018-09-28T04:25:20.630Z,8.30
2018-09-28T04:27:47.587Z,11.20
2018-09-28T04:30:14.535Z,11.20
2018-09-28T04:32:41.897Z,11.10
2018-09-28T04:35:08.863Z,11.10
2018-09-28T04:37:35.833Z,11.00
2018-09-28T04:40:02.791Z,9.80
2018-09-28T04:42:29.761Z,11.00
2018-09-28T04:44:56.722Z,10.90
2018-09-28T04:47:23.682Z,10.90
2018-09-28T04:49:50.625Z,10.70
2018-09-28T04:52:17.573Z,10.80
2018-09-28T04:54:44.546Z,10.80
2018-09-28T04:57:11.497Z,10.90
2018-09-28T04:59:38.455Z,9.00
2018-09-28T05:02:05.423Z,7.80
2018-09-28T05:04:32.444Z,11.10
2018-09-28T05:06:59.417Z,11.10
2018-09-28T05:09:26.405Z,9.40
2018-09-28T05:11:53.366Z,11.10
2018-09-28T05:14:20.314Z,14.00
2018-09-28T05:16:47.284Z,11.00
2018-09-28T05:19:14.251Z,11.00
2018-09-28T05:21:41.247Z,10.70
2018-09-28T05:24:08.249Z,10.80
2018-09-28T05:26:35.210Z,10.80
2018-09-28T05:29:02.173Z,10.90
2018-09-28T05:31:29.238Z,10.70
2018-09-28T05:33:56.329Z,10.70
2018-09-28T05:36:23.302Z,10.60
2018-09-28T05:38:50.353Z,10.60
2018-09-28T05:41:17.330Z,10.50
2018-09-28T05:43:44.345Z,10.50
2018-09-28T05:46:11.275Z,10.30
2018-09-28T05:48:38.346Z,10.40
2018-09-28T05:51:05.785Z,10.40
2018-09-28T05:53:32.777Z,10.40
2018-09-28T05:55:59.735Z,10.40
2018-09-28T05:58:32.518Z,10.60
2018-09-28T06:01:05.244Z,10.50
2018-09-28T06:03:32.200Z,10.60
2018-09-28T06:06:01.637Z,10.80
2018-09-28T06:08:28.795Z,9.30
2018-09-28T06:10:55.766Z,10.70
2018-09-28T06:13:22.725Z,10.80
2018-09-28T06:15:50.019Z,11.00
2018-09-28T06:18:17.046Z,11.00
2018-09-28T06:20:44.334Z,11.20
2018-09-28T06:23:11.314Z,8.60
2018-09-28T06:25:38.260Z,11.30
2018-09-28T06:28:05.220Z,11.00
2018-09-28T06:30:32.422Z,11.90
2018-09-28T06:32:59.409Z,11.40
2018-09-28T06:35:26.821Z,11.70
2018-09-28T06:37:54.110Z,11.60
2018-09-28T06:40:21.054Z,11.50
2018-09-28T06:42:48.029Z,11.50
2018-09-28T06:45:15.015Z,11.70
2018-09-28T06:47:41.968Z,11.90
2018-09-28T06:50:08.918Z,11.90
2018-09-28T06:52:35.896Z,12.30
2018-09-28T06:55:03.213Z,12.20
2018-09-28T06:57:30.170Z,12.60
2018-09-28T06:59:57.235Z,12.90
2018-09-28T07:02:24.146Z,13.10
2018-09-28T07:04:51.129Z,13.30
2018-09-28T07:07:18.417Z,13.40
2018-09-28T07:09:45.366Z,13.50
2018-09-28T07:12:12.467Z,13.70
2018-09-28T07:14:39.380Z,13.90
2018-09-28T07:17:06.365Z,14.10
2018-09-28T07:19:33.322Z,14.50
2018-09-28T07:22:00.305Z,14.60
2018-09-28T07:24:27.765Z,14.70
2018-09-28T07:26:55.077Z,14.90
2018-09-28T07:29:22.048Z,15.00
2018-09-28T07:31:49.083Z,15.10
2018-09-28T07:34:16.053Z,15.10
2018-09-28T07:36:43.530Z,15.20
2018-09-28T07:39:11.235Z,15.50
2018-09-28T07:41:38.203Z,15.50
2018-09-28T07:44:05.277Z,13.40
2018-09-28T07:46:32.267Z,15.90
2018-09-28T07:48:59.426Z,16.10
2018-09-28T07:51:26.478Z,16.20
2018-09-28T07:53:53.420Z,16.40
2018-09-28T07:56:20.582Z,16.60
2018-09-28T07:58:47.694Z,16.70
2018-09-28T08:01:14.670Z,16.80
2018-09-28T08:03:41.606Z,17.00
2018-09-28T08:06:08.574Z,17.10
2018-09-28T08:08:35.541Z,17.40
2018-09-28T08:11:02.504Z,17.60
2018-09-28T08:13:29.501Z,17.70
2018-09-28T08:15:56.483Z,17.80
2018-09-28T08:18:23.429Z,18.10
2018-09-28T08:20:51.118Z,18.30
2018-09-28T08:23:18.250Z,18.40
2018-09-28T08:25:45.145Z,18.50
2018-09-28T08:28:12.129Z,20.00
2018-09-28T08:30:39.136Z,18.80
2018-09-28T08:33:06.157Z,18.70
2018-09-28T08:35:33.117Z,18.90
2018-09-28T08:38:00.687Z,19.00
2018-09-28T08:40:27.655Z,19.20
2018-09-28T08:42:54.633Z,19.20
2018-09-28T08:45:22.054Z,19.70
2018-09-28T08:47:49.023Z,19.60
2018-09-28T08:50:16.022Z,19.90
2018-09-28T08:52:43.078Z,20.30
2018-09-28T08:55:10.037Z,20.70
2018-09-28T08:57:37.022Z,20.90
2018-09-28T09:00:04.210Z,20.90
2018-09-28T09:02:31.213Z,21.30
2018-09-28T09:04:58.194Z,21.90
2018-09-28T09:07:25.330Z,24.00
2018-09-28T09:09:52.299Z,28.90
2018-09-28T09:12:19.262Z,31.10
2018-09-28T09:14:46.220Z,31.80
2018-09-28T09:17:13.197Z,31.10
2018-09-28T09:19:40.402Z,31.70
2018-09-28T09:22:07.386Z,32.40
2018-09-28T09:24:34.358Z,32.70
2018-09-28T09:27:01.415Z,32.90
2018-09-28T09:29:28.377Z,32.70
2018-09-28T09:31:56.114Z,32.20
2018-09-28T09:34:23.101Z,32.50
2018-09-28T09:36:50.081Z,34.30
2018-09-28T09:39:17.726Z,32.70
2018-09-28T09:41:44.705Z,33.30
2018-09-28T09:44:11.665Z,33.70
2018-09-28T09:46:38.802Z,33.10
2018-09-28T09:49:05.963Z,32.20
2018-09-28T09:51:32.992Z,32.90
2018-09-28T09:53:59.957Z,33.40
2018-09-28T09:56:26.926Z,33.40
2018-09-28T09:58:53.901Z,33.50
2018-09-28T10:01:26.638Z,33.80
2018-09-28T10:03:53.630Z,33.40
2018-09-28T10:06:20.577Z,33.20
2018-09-28T10:08:47.648Z,31.50
2018-09-28T10:11:14.625Z,32.00
2018-09-28T10:13:41.586Z,30.60
2018-09-28T10:16:08.669Z,30.40
2018-09-28T10:18:35.706Z,30.00
2018-09-28T10:21:02.669Z,28.80
2018-09-28T10:23:29.670Z,28.80
2018-09-28T10:25:56.637Z,29.00
2018-09-28T10:28:23.647Z,29.00
2018-09-28T10:30:50.709Z,29.40
2018-09-28T10:33:17.675Z,29.40
2018-09-28T10:35:44.637Z,29.20
2018-09-28T10:38:11.582Z,29.40
2018-09-28T10:40:39.154Z,29.40
2018-09-28T10:43:05.981Z,29.20
2018-09-28T10:45:32.971Z,29.60
2018-09-28T10:47:59.901Z,29.30
2018-09-28T10:50:26.846Z,29.60
2018-09-28T10:52:54.006Z,29.20
2018-09-28T10:55:20.806Z,29.30
2018-09-28T10:57:48.118Z,29.50
2018-09-28T11:00:15.087Z,29.40
2018-09-28T11:02:42.085Z,29.90
2018-09-28T11:05:09.052Z,29.80
2018-09-28T11:07:36.006Z,29.70
2018-09-28T11:10:03.008Z,29.80
2018-09-28T11:12:29.958Z,29.80
2018-09-28T11:14:56.930Z,29.90
2018-09-28T11:17:23.936Z,30.00
2018-09-28T11:19:50.886Z,29.90
2018-09-28T11:22:17.834Z,30.20
2018-09-28T11:24:44.819Z,30.30
2018-09-28T11:27:11.802Z,28.30
2018-09-28T11:29:38.857Z,30.60
2018-09-28T11:32:06.430Z,30.10
2018-09-28T11:34:33.409Z,30.20
2018-09-28T11:37:00.381Z,29.80
2018-09-28T11:39:27.424Z,29.90
2018-09-28T11:41:54.885Z,29.90
2018-09-28T11:44:21.899Z,29.60
2018-09-28T11:46:48.866Z,29.40
2018-09-28T11:49:15.880Z,29.20
2018-09-28T11:51:42.823Z,29.40
2018-09-28T11:54:09.737Z,29.50
2018-09-28T11:56:37.269Z,29.80
2018-09-28T11:59:04.321Z,29.90
2018-09-28T12:01:31.218Z,29.80
2018-09-28T12:03:58.162Z,27.70
2018-09-28T12:06:25.155Z,29.10
2018-09-28T12:08:52.138Z,28.90
2018-09-28T12:11:19.143Z,29.10
2018-09-28T12:13:46.095Z,29.50
2018-09-28T12:16:13.069Z,29.70
2018-09-28T12:18:40.100Z,29.40
2018-09-28T12:21:07.006Z,29.40
2018-09-28T12:23:34.018Z,29.10
2018-09-28T12:26:01.309Z,29.10
2018-09-28T12:28:28.287Z,29.00
2018-09-28T12:30:55.255Z,28.40
2018-09-28T12:33:22.297Z,27.70
2018-09-28T12:35:49.166Z,28.10
2018-09-28T12:38:16.137Z,28.50
2018-09-28T12:40:43.130Z,26.20
2018-09-28T12:43:10.639Z,28.60
2018-09-28T12:45:37.913Z,27.90
2018-09-28T12:48:04.907Z,27.60
2018-09-28T12:50:31.863Z,27.80
2018-09-28T12:52:58.822Z,27.80
2018-09-28T12:55:25.805Z,27.60
2018-09-28T12:57:52.798Z,27.50
2018-09-28T13:00:19.846Z,27.30
2018-09-28T13:02:46.814Z,27.30
2018-09-28T13:05:13.654Z,27.00
2018-09-28T13:07:40.620Z,26.90
2018-09-28T13:10:07.738Z,26.90
2018-09-28T13:12:35.463Z,26.80
2018-09-28T13:15:02.615Z,26.70
2018-09-28T13:17:29.417Z,26.60
2018-09-28T13:19:56.370Z,26.60
2018-09-28T13:22:23.515Z,26.40
2018-09-28T13:24:50.636Z,26.30
2018-09-28T13:27:17.537Z,25.90
2018-09-28T13:29:44.771Z,26.00
2018-09-28T13:32:11.797Z,25.90
2018-09-28T13:34:38.727Z,26.00
2018-09-28T13:37:05.846Z,25.80
2018-09-28T13:39:33.075Z,25.70
2018-09-28T13:42:00.151Z,25.70
2018-09-28T13:44:27.733Z,24.30
2018-09-28T13:46:54.690Z,25.40
2018-09-28T13:49:22.010Z,25.40
2018-09-28T13:51:49.095Z,25.30
2018-09-28T13:54:16.210Z,23.70
2018-09-28T13:56:43.427Z,24.40
2018-09-28T13:59:10.578Z,25.30
2018-09-28T14:01:37.672Z,25.00
2018-09-28T14:04:04.959Z,24.80
2018-09-28T14:06:31.958Z,23.50
2018-09-28T14:08:58.969Z,24.70
2018-09-28T14:11:25.979Z,23.80
2018-09-28T14:13:52.935Z,24.60
2018-09-28T14:16:20.397Z,24.60
2018-09-28T14:18:47.254Z,24.70
2018-09-28T14:21:14.364Z,24.20
2018-09-28T14:23:41.330Z,24.30
2018-09-28T14:26:08.415Z,24.40
2018-09-28T14:28:35.411Z,24.40
2018-09-28T14:31:02.492Z,24.20
2018-09-28T14:33:29.460Z,25.10
2018-09-28T14:35:56.463Z,23.60
2018-09-28T14:38:23.773Z,24.00
2018-09-28T14:40:50.729Z,20.90
2018-09-28T14:43:17.654Z,23.90
2018-09-28T14:45:45.260Z,23.90
2018-09-28T14:48:12.367Z,23.90
2018-09-28T14:50:39.413Z,23.60
2018-09-28T14:53:06.479Z,22.50
2018-09-28T14:55:33.434Z,22.20
2018-09-28T14:58:01.484Z,23.50
2018-09-28T15:00:28.915Z,23.50
2018-09-28T15:02:55.899Z,23.60
2018-09-28T15:05:22.944Z,20.20
2018-09-28T15:07:49.912Z,23.20
2018-09-28T15:10:17.077Z,23.20
2018-09-28T15:12:44.030Z,23.30
2018-09-28T15:15:11.064Z,23.30
2018-09-28T15:17:37.960Z,23.10
2018-09-28T15:20:04.978Z,23.00
2018-09-28T15:22:31.999Z,23.00
2018-09-28T15:24:59.371Z,22.80
2018-09-28T15:27:26.367Z,22.70
2018-09-28T15:29:53.316Z,22.70
2018-09-28T15:32:20.892Z,22.60
2018-09-28T15:34:48.005Z,22.60
2018-09-28T15:37:15.026Z,22.40
2018-09-28T15:39:41.918Z,22.30
2018-09-28T15:42:09.196Z,22.50
2018-09-28T15:44:36.354Z,22.40
2018-09-28T15:47:03.704Z,22.20
2018-09-28T15:49:30.808Z,22.20
2018-09-28T15:51:57.893Z,20.70
2018-09-28T15:54:24.916Z,23.90
2018-09-28T15:56:52.109Z,22.40
2018-09-28T15:59:18.998Z,20.60
2018-09-28T16:01:46.084Z,19.60
2018-09-28T16:04:13.146Z,22.10
2018-09-28T16:06:40.352Z,19.60
2018-09-28T16:09:08.194Z,20.80
2018-09-28T16:11:35.345Z,20.50
2018-09-28T16:14:02.356Z,20.70
2018-09-28T16:16:29.475Z,21.70
2018-09-28T16:18:56.692Z,21.10
2018-09-28T16:21:23.674Z,25.10
2018-09-28T16:23:50.893Z,21.80
2018-09-28T16:26:17.834Z,21.70
2018-09-28T16:28:45.201Z,21.60
2018-09-28T16:31:12.137Z,19.20
2018-09-28T16:33:39.171Z,21.50
2018-09-28T16:36:06.382Z,21.40
2018-09-28T16:38:33.504Z,21.30
2018-09-28T16:41:00.650Z,21.20
2018-09-28T16:43:27.705Z,20.30
2018-09-28T16:45:54.928Z,19.80
2018-09-28T16:48:22.547Z,19.20
2018-09-28T16:50:49.511Z,24.10
2018-09-28T16:53:16.700Z,21.00
2018-09-28T16:55:43.968Z,20.50
2018-09-28T16:58:10.873Z,19.50
2018-09-28T17:00:37.983Z,18.20
2018-09-28T17:03:05.329Z,20.70
2018-09-28T17:05:32.457Z,20.70
2018-09-28T17:07:59.547Z,20.70
2018-09-28T17:10:26.663Z,20.50
2018-09-28T17:12:53.710Z,17.30
2018-09-28T17:15:20.768Z,20.50
2018-09-28T17:17:47.916Z,20.50
2018-09-28T17:20:14.976Z,20.50
2018-09-28T17:22:41.972Z,20.20
2018-09-28T17:25:09.044Z,20.40
2018-09-28T17:27:36.102Z,20.30
2018-09-28T17:30:03.243Z,20.20
2018-09-28T17:32:30.379Z,18.20
2018-09-28T17:34:57.405Z,20.10
2018-09-28T17:37:24.450Z,20.10
2018-09-28T17:39:51.483Z,20.10
2018-09-28T17:42:18.546Z,19.90
2018-09-28T17:44:45.676Z,19.80
2018-09-28T17:47:12.640Z,18.00
2018-09-28T17:49:39.851Z,18.80
2018-09-28T17:52:06.973Z,19.50
2018-09-28T17:54:33.988Z,16.90
2018-09-28T17:57:00.968Z,17.30
2018-09-28T17:59:28.027Z,19.60
2018-09-28T18:01:55.089Z,16.90
2018-09-28T18:04:22.034Z,18.40
2018-09-28T18:06:49.282Z,19.10
2018-09-28T18:09:16.386Z,19.50
2018-09-28T18:11:43.355Z,16.10
2018-09-28T18:14:10.370Z,19.20
2018-09-28T18:16:37.338Z,19.10
2018-09-28T18:19:04.343Z,18.90
2018-09-28T18:21:31.554Z,18.80
2018-09-28T18:23:58.778Z,18.60
2018-09-28T18:26:25.902Z,18.90
2018-09-28T18:28:52.943Z,15.50
2018-09-28T18:31:19.971Z,16.50
2018-09-28T18:33:46.948Z,18.40
2018-09-28T18:36:14.264Z,17.10
2018-09-28T18:38:41.498Z,18.30
2018-09-28T18:41:08.487Z,18.30
2018-09-28T18:43:35.600Z,15.60
2018-09-28T18:46:02.760Z,17.40
2018-09-28T18:48:29.817Z,17.80
2018-09-28T18:50:57.317Z,16.60
2018-09-28T18:53:24.321Z,16.40
2018-09-28T18:55:51.426Z,17.70
2018-09-28T18:58:18.392Z,17.30
2018-09-28T19:00:45.689Z,17.00
2018-09-28T19:03:12.733Z,17.00
2018-09-28T19:05:39.809Z,17.00
2018-09-28T19:08:06.705Z,17.00
2018-09-28T19:10:33.663Z,17.10
2018-09-28T19:13:00.638Z,17.10
2018-09-28T19:15:27.589Z,17.10
2018-09-28T19:17:54.631Z,16.90
2018-09-28T19:20:21.640Z,16.90
2018-09-28T19:22:48.589Z,17.00
2018-09-28T19:25:15.526Z,17.00
2018-09-28T19:27:42.466Z,16.80
2018-09-28T19:30:09.445Z,16.90
2018-09-28T19:32:36.413Z,16.70
2018-09-28T19:35:03.378Z,16.70
2018-09-28T19:37:30.381Z,16.50
2018-09-28T19:39:57.346Z,16.40
2018-09-28T19:42:24.314Z,16.40
2018-09-28T19:44:51.285Z,16.20
2018-09-28T19:47:18.578Z,16.10
2018-09-28T19:49:45.551Z,16.10
2018-09-28T19:52:12.994Z,16.30
2018-09-28T19:54:39.991Z,16.30
2018-09-28T19:57:06.967Z,16.10
2018-09-28T19:59:33.929Z,16.10
2018-09-28T20:02:00.927Z,16.10
2018-09-28T20:04:27.890Z,16.20
2018-09-28T20:06:54.900Z,16.10
2018-09-28T20:09:22.413Z,15.90
2018-09-28T20:11:49.406Z,16.10
2018-09-28T20:14:16.370Z,16.30
2018-09-28T20:16:43.629Z,16.00
2018-09-28T20:19:10.630Z,15.90
2018-09-28T20:21:37.678Z,15.90
2018-09-28T20:24:04.686Z,16.00
2018-09-28T20:26:31.776Z,16.00
2018-09-28T20:28:58.755Z,15.90
2018-09-28T20:31:25.730Z,16.00
2018-09-28T20:33:52.733Z,15.20
2018-09-28T20:36:19.718Z,15.60
2018-09-28T20:38:46.690Z,15.70
2018-09-28T20:41:13.689Z,15.60
2018-09-28T20:43:40.676Z,15.50
2018-09-28T20:46:07.640Z,15.50
2018-09-28T20:48:34.799Z,15.40
2018-09-28T20:51:02.170Z,15.50
2018-09-28T20:53:29.626Z,15.40
2018-09-28T20:55:56.586Z,15.30
2018-09-28T20:58:23.560Z,15.40
2018-09-28T21:00:50.571Z,15.30
2018-09-28T21:03:17.516Z,15.20
2018-09-28T21:05:44.469Z,15.30
2018-09-28T21:08:11.425Z,15.20
2018-09-28T21:10:38.511Z,15.20
2018-09-28T21:13:05.654Z,15.30
2018-09-28T21:15:32.618Z,15.20
2018-09-28T21:17:59.579Z,15.10
2018-09-28T21:20:26.545Z,15.10
2018-09-28T21:22:53.521Z,15.00
2018-09-28T21:25:20.490Z,15.10
2018-09-28T21:27:47.482Z,15.30
2018-09-28T21:30:14.438Z,15.30
2018-09-28T21:32:41.433Z,15.20
2018-09-28T21:35:08.474Z,15.20
2018-09-28T21:37:35.447Z,15.10
2018-09-28T21:40:02.409Z,15.00
2018-09-28T21:42:32.082Z,15.10
2018-09-28T21:44:59.615Z,15.10
2018-09-28T21:47:26.586Z,15.10
2018-09-28T21:49:53.560Z,15.00
2018-09-28T21:52:20.515Z,14.90
2018-09-28T21:54:47.870Z,14.80
2018-09-28T21:57:14.853Z,14.80
2018-09-28T21:59:41.801Z,14.90
2018-09-28T22:02:08.769Z,14.80
2018-09-28T22:04:36.066Z,14.80
2018-09-28T22:07:03.018Z,14.90
2018-09-28T22:09:30.005Z,14.70
2018-09-28T22:11:57.461Z,14.90
2018-09-28T22:14:24.421Z,14.90
2018-09-28T22:16:51.370Z,14.90
2018-09-28T22:19:18.334Z,14.80
2018-09-28T22:21:45.298Z,14.80
2018-09-28T22:24:12.280Z,12.60
2018-09-28T22:26:39.244Z,14.80
2018-09-28T22:29:06.207Z,14.80
2018-09-28T22:31:33.165Z,14.80
2018-09-28T22:34:00.279Z,14.80
2018-09-28T22:36:27.259Z,14.70
2018-09-28T22:38:54.209Z,15.90
2018-09-28T22:41:21.207Z,14.60
2018-09-28T22:43:48.247Z,14.40
2018-09-28T22:46:15.125Z,14.60
2018-09-28T22:48:42.150Z,14.60
2018-09-28T22:51:09.119Z,14.50
2018-09-28T22:53:36.095Z,14.50
2018-09-28T22:56:03.411Z,14.40
2018-09-28T22:58:30.408Z,14.40
2018-09-28T23:00:57.383Z,14.50
2018-09-28T23:03:24.383Z,14.40
2018-09-28T23:05:51.343Z,14.40
2018-09-28T23:08:18.314Z,14.40
2018-09-28T23:10:45.328Z,14.40
2018-09-28T23:13:12.239Z,14.30
2018-09-28T23:15:39.211Z,14.40
2018-09-28T23:18:06.170Z,14.40
2018-09-28T23:20:33.125Z,14.50
2018-09-28T23:23:00.100Z,14.30
2018-09-28T23:25:27.115Z,14.20
2018-09-28T23:27:54.098Z,14.10
2018-09-28T23:30:21.087Z,14.30
2018-09-28T23:32:48.077Z,14.40
2018-09-28T23:35:15.037Z,14.40
2018-09-28T23:37:41.986Z,14.50
2018-09-28T23:40:08.963Z,14.50
2018-09-28T23:42:35.977Z,14.50
2018-09-28T23:45:03.009Z,14.30
2018-09-28T23:47:30.034Z,14.40
2018-09-28T23:49:56.976Z,14.30
2018-09-28T23:52:23.939Z,14.10
2018-09-28T23:54:50.932Z,14.20
2018-09-28T23:57:18.111Z,14.20
2018-09-28T23:59:45.093Z,14.30
